sensor_id;sensor_type;location;lat;lon;timestamp;temperature;humidity
23403;DHT22;11874;48.228;11.684;2023-12-14T00:00:01;8.20;99.90
23403;DHT22;11874;48.228;11.684;2023-12-14T00:02:30;8.20;99.90
23403;DHT22;11874;48.228;11.684;2023-12-14T00:05:00;8.20;99.90
23403;DHT22;11874;48.228;11.684;2023-12-14T00:07:29;8.20;99.90
23403;DHT22;11874;48.228;11.684;2023-12-14T00:09:58;8.20;99.90
23403;DHT22;11874;48.228;11.684;2023-12-14T00:12:27;8.20;99.90
23403;DHT22;11874;48.228;11.684;2023-12-14T00:14:55;8.20;99.90
23403;DHT22;11874;48.228;11.684;2023-12-14T00:17:23;8.20;99.90
23403;DHT22;11874;48.228;11.684;2023-12-14T00:19:51;8.20;99.90
23403;DHT22;11874;48.228;11.684;2023-12-14T00:22:21;8.20;99.90
23403;DHT22;11874;48.228;11.684;2023-12-14T00:24:49;8.20;99.90
23403;DHT22;11874;48.228;11.684;2023-12-14T00:27:18;8.10;99.90
23403;DHT22;11874;48.228;11.684;2023-12-14T00:29:46;8.10;99.90
23403;DHT22;11874;48.228;11.684;2023-12-14T00:32:14;8.10;99.90
23403;DHT22;11874;48.228;11.684;2023-12-14T00:34:42;8.10;99.90
23403;DHT22;11874;48.228;11.684;2023-12-14T00:37:10;8.10;99.90
23403;DHT22;11874;48.228;11.684;2023-12-14T00:39:39;8.10;99.90
23403;DHT22;11874;48.228;11.684;2023-12-14T00:42:07;8.10;99.90
23403;DHT22;11874;48.228;11.684;2023-12-14T00:44:35;8.10;99.90
23403;DHT22;11874;48.228;11.684;2023-12-14T00:47:04;8.00;99.90
23403;DHT22;11874;48.228;11.684;2023-12-14T00:49:32;8.00;99.90
23403;DHT22;11874;48.228;11.684;2023-12-14T00:52:00;8.10;99.90
23403;DHT22;11874;48.228;11.684;2023-12-14T00:54:29;8.10;99.90
23403;DHT22;11874;48.228;11.684;2023-12-14T00:56:58;8.10;99.90
23403;DHT22;11874;48.228;11.684;2023-12-14T00:59:26;8.10;99.90
23403;DHT22;11874;48.228;11.684;2023-12-14T01:01:54;8.10;99.90
23403;DHT22;11874;48.228;11.684;2023-12-14T01:04:22;8.20;99.90
23403;DHT22;11874;48.228;11.684;2023-12-14T01:06:50;8.10;99.90
23403;DHT22;11874;48.228;11.684;2023-12-14T01:09:20;8.10;99.90
23403;DHT22;11874;48.228;11.684;2023-12-14T01:11:48;8.10;99.90
23403;DHT22;11874;48.228;11.684;2023-12-14T01:14:17;8.10;99.90
23403;DHT22;11874;48.228;11.684;2023-12-14T01:16:45;8.20;99.90
23403;DHT22;11874;48.228;11.684;2023-12-14T01:19:13;8.10;99.90
23403;DHT22;11874;48.228;11.684;2023-12-14T01:21:42;8.10;99.90
23403;DHT22;11874;48.228;11.684;2023-12-14T01:24:10;8.10;99.90
23403;DHT22;11874;48.228;11.684;2023-12-14T01:26:40;8.10;99.90
23403;DHT22;11874;48.228;11.684;2023-12-14T01:29:08;8.10;99.90
23403;DHT22;11874;48.228;11.684;2023-12-14T01:31:37;8.10;99.90
23403;DHT22;11874;48.228;11.684;2023-12-14T01:34:06;8.10;99.90
23403;DHT22;11874;48.228;11.684;2023-12-14T01:36:35;8.10;99.90
23403;DHT22;11874;48.228;11.684;2023-12-14T01:39:03;8.10;99.90
23403;DHT22;11874;48.228;11.684;2023-12-14T01:41:32;8.10;99.90
23403;DHT22;11874;48.228;11.684;2023-12-14T01:44:00;8.10;99.90
23403;DHT22;11874;48.228;11.684;2023-12-14T01:46:28;8.10;99.90
23403;DHT22;11874;48.228;11.684;2023-12-14T01:48:57;8.10;99.90
23403;DHT22;11874;48.228;11.684;2023-12-14T01:51:25;8.10;99.90
23403;DHT22;11874;48.228;11.684;2023-12-14T01:53:53;8.10;99.90
23403;DHT22;11874;48.228;11.684;2023-12-14T01:56:23;8.00;99.90
23403;DHT22;11874;48.228;11.684;2023-12-14T01:58:51;8.00;99.90
23403;DHT22;11874;48.228;11.684;2023-12-14T02:01:23;8.00;99.90
23403;DHT22;11874;48.228;11.684;2023-12-14T02:03:56;8.00;99.90
23403;DHT22;11874;48.228;11.684;2023-12-14T02:06:24;8.00;99.90
23403;DHT22;11874;48.228;11.684;2023-12-14T02:08:53;8.10;99.90
23403;DHT22;11874;48.228;11.684;2023-12-14T02:11:21;8.00;99.90
23403;DHT22;11874;48.228;11.684;2023-12-14T02:13:51;8.00;99.90
23403;DHT22;11874;48.228;11.684;2023-12-14T02:16:19;8.00;99.90
23403;DHT22;11874;48.228;11.684;2023-12-14T02:18:47;8.00;99.90
23403;DHT22;11874;48.228;11.684;2023-12-14T02:21:17;8.00;99.90
23403;DHT22;11874;48.228;11.684;2023-12-14T02:23:47;8.00;99.90
23403;DHT22;11874;48.228;11.684;2023-12-14T02:26:15;8.00;99.90
23403;DHT22;11874;48.228;11.684;2023-12-14T02:28:44;7.90;99.90
23403;DHT22;11874;48.228;11.684;2023-12-14T02:31:14;7.90;99.90
23403;DHT22;11874;48.228;11.684;2023-12-14T02:33:42;7.90;99.90
23403;DHT22;11874;48.228;11.684;2023-12-14T02:36:10;7.90;99.90
23403;DHT22;11874;48.228;11.684;2023-12-14T02:38:38;7.90;99.90
23403;DHT22;11874;48.228;11.684;2023-12-14T02:41:10;7.90;99.90
23403;DHT22;11874;48.228;11.684;2023-12-14T02:43:38;7.80;99.90
23403;DHT22;11874;48.228;11.684;2023-12-14T02:46:08;7.80;99.90
23403;DHT22;11874;48.228;11.684;2023-12-14T02:48:41;7.90;99.90
23403;DHT22;11874;48.228;11.684;2023-12-14T02:51:13;7.90;99.90
23403;DHT22;11874;48.228;11.684;2023-12-14T02:53:42;7.90;99.90
23403;DHT22;11874;48.228;11.684;2023-12-14T02:56:12;7.80;99.90
23403;DHT22;11874;48.228;11.684;2023-12-14T02:58:40;7.80;99.90
23403;DHT22;11874;48.228;11.684;2023-12-14T03:01:08;7.80;99.90
23403;DHT22;11874;48.228;11.684;2023-12-14T03:03:38;7.80;99.90
23403;DHT22;11874;48.228;11.684;2023-12-14T03:06:07;7.80;99.90
23403;DHT22;11874;48.228;11.684;2023-12-14T03:08:35;7.80;99.90
23403;DHT22;11874;48.228;11.684;2023-12-14T03:11:03;7.80;99.90
23403;DHT22;11874;48.228;11.684;2023-12-14T03:13:33;7.80;99.90
23403;DHT22;11874;48.228;11.684;2023-12-14T03:16:01;7.80;99.90
23403;DHT22;11874;48.228;11.684;2023-12-14T03:18:30;7.80;99.90
23403;DHT22;11874;48.228;11.684;2023-12-14T03:20:59;7.80;99.90
23403;DHT22;11874;48.228;11.684;2023-12-14T03:23:27;7.80;99.90
23403;DHT22;11874;48.228;11.684;2023-12-14T03:25:56;7.80;99.90
23403;DHT22;11874;48.228;11.684;2023-12-14T03:28:24;7.80;99.90
23403;DHT22;11874;48.228;11.684;2023-12-14T03:30:53;7.70;99.90
23403;DHT22;11874;48.228;11.684;2023-12-14T03:33:22;7.80;99.90
23403;DHT22;11874;48.228;11.684;2023-12-14T03:35:50;7.80;99.90
23403;DHT22;11874;48.228;11.684;2023-12-14T03:38:18;7.70;99.90
23403;DHT22;11874;48.228;11.684;2023-12-14T03:40:46;7.70;99.90
23403;DHT22;11874;48.228;11.684;2023-12-14T03:43:14;7.70;99.90
23403;DHT22;11874;48.228;11.684;2023-12-14T03:45:42;7.70;99.90
23403;DHT22;11874;48.228;11.684;2023-12-14T03:48:13;7.80;99.90
23403;DHT22;11874;48.228;11.684;2023-12-14T03:50:41;7.80;99.90
23403;DHT22;11874;48.228;11.684;2023-12-14T03:53:09;7.80;99.90
23403;DHT22;11874;48.228;11.684;2023-12-14T03:55:39;7.80;99.90
23403;DHT22;11874;48.228;11.684;2023-12-14T03:58:07;7.80;99.90
23403;DHT22;11874;48.228;11.684;2023-12-14T04:00:35;7.80;99.90
23403;DHT22;11874;48.228;11.684;2023-12-14T04:03:03;7.80;99.90
23403;DHT22;11874;48.228;11.684;2023-12-14T04:05:35;7.80;99.90
23403;DHT22;11874;48.228;11.684;2023-12-14T04:08:03;7.80;99.90
23403;DHT22;11874;48.228;11.684;2023-12-14T04:10:33;7.80;99.90
23403;DHT22;11874;48.228;11.684;2023-12-14T04:13:02;7.70;99.90
23403;DHT22;11874;48.228;11.684;2023-12-14T04:15:30;7.70;99.90
23403;DHT22;11874;48.228;11.684;2023-12-14T04:17:58;7.70;99.90
23403;DHT22;11874;48.228;11.684;2023-12-14T04:20:26;7.70;99.90
23403;DHT22;11874;48.228;11.684;2023-12-14T04:22:56;7.70;99.90
23403;DHT22;11874;48.228;11.684;2023-12-14T04:25:24;7.80;99.90
23403;DHT22;11874;48.228;11.684;2023-12-14T04:27:52;7.80;99.90
23403;DHT22;11874;48.228;11.684;2023-12-14T04:30:20;7.70;99.90
23403;DHT22;11874;48.228;11.684;2023-12-14T04:32:50;7.70;99.90
23403;DHT22;11874;48.228;11.684;2023-12-14T04:35:19;7.70;99.90
23403;DHT22;11874;48.228;11.684;2023-12-14T04:37:49;7.70;99.90
23403;DHT22;11874;48.228;11.684;2023-12-14T04:40:19;7.60;99.90
23403;DHT22;11874;48.228;11.684;2023-12-14T04:42:47;7.60;99.90
23403;DHT22;11874;48.228;11.684;2023-12-14T04:45:15;7.60;99.90
23403;DHT22;11874;48.228;11.684;2023-12-14T04:47:43;7.60;99.90
23403;DHT22;11874;48.228;11.684;2023-12-14T04:50:12;7.60;99.90
23403;DHT22;11874;48.228;11.684;2023-12-14T04:52:41;7.60;99.90
23403;DHT22;11874;48.228;11.684;2023-12-14T04:55:09;7.60;99.90
23403;DHT22;11874;48.228;11.684;2023-12-14T04:57:39;7.60;99.90
23403;DHT22;11874;48.228;11.684;2023-12-14T05:00:07;7.50;99.90
23403;DHT22;11874;48.228;11.684;2023-12-14T05:02:36;7.50;99.90
23403;DHT22;11874;48.228;11.684;2023-12-14T05:05:04;7.50;99.90
23403;DHT22;11874;48.228;11.684;2023-12-14T05:07:32;7.60;99.90
23403;DHT22;11874;48.228;11.684;2023-12-14T05:10:04;7.60;99.90
23403;DHT22;11874;48.228;11.684;2023-12-14T05:12:32;7.50;99.90
23403;DHT22;11874;48.228;11.684;2023-12-14T05:15:02;7.50;99.90
23403;DHT22;11874;48.228;11.684;2023-12-14T05:17:31;7.50;99.90
23403;DHT22;11874;48.228;11.684;2023-12-14T05:20:00;7.50;99.90
23403;DHT22;11874;48.228;11.684;2023-12-14T05:22:29;7.50;99.90
23403;DHT22;11874;48.228;11.684;2023-12-14T05:24:57;7.50;99.90
23403;DHT22;11874;48.228;11.684;2023-12-14T05:27:25;7.50;99.90
23403;DHT22;11874;48.228;11.684;2023-12-14T05:29:53;7.90;99.90
23403;DHT22;11874;48.228;11.684;2023-12-14T05:32:23;7.50;99.90
23403;DHT22;11874;48.228;11.684;2023-12-14T05:34:51;7.50;99.90
23403;DHT22;11874;48.228;11.684;2023-12-14T05:37:20;7.40;99.90
23403;DHT22;11874;48.228;11.684;2023-12-14T05:39:47;7.40;99.90
23403;DHT22;11874;48.228;11.684;2023-12-14T05:42:16;7.50;99.90
23403;DHT22;11874;48.228;11.684;2023-12-14T05:44:44;7.40;99.90
23403;DHT22;11874;48.228;11.684;2023-12-14T05:47:13;7.40;99.90
23403;DHT22;11874;48.228;11.684;2023-12-14T05:49:43;7.50;99.90
23403;DHT22;11874;48.228;11.684;2023-12-14T05:52:11;7.40;99.90
23403;DHT22;11874;48.228;11.684;2023-12-14T05:54:39;7.40;99.90
23403;DHT22;11874;48.228;11.684;2023-12-14T05:57:08;7.50;99.90
23403;DHT22;11874;48.228;11.684;2023-12-14T05:59:36;7.50;99.90
23403;DHT22;11874;48.228;11.684;2023-12-14T06:02:04;7.50;99.90
23403;DHT22;11874;48.228;11.684;2023-12-14T06:04:33;7.50;99.90
23403;DHT22;11874;48.228;11.684;2023-12-14T06:07:03;7.50;99.90
23403;DHT22;11874;48.228;11.684;2023-12-14T06:09:31;7.50;99.90
23403;DHT22;11874;48.228;11.684;2023-12-14T06:12:01;7.50;99.90
23403;DHT22;11874;48.228;11.684;2023-12-14T06:14:31;7.50;99.90
23403;DHT22;11874;48.228;11.684;2023-12-14T06:16:59;7.50;99.90
23403;DHT22;11874;48.228;11.684;2023-12-14T06:19:27;7.50;99.90
23403;DHT22;11874;48.228;11.684;2023-12-14T06:21:55;7.50;99.90
23403;DHT22;11874;48.228;11.684;2023-12-14T06:24:25;7.50;99.90
23403;DHT22;11874;48.228;11.684;2023-12-14T06:26:53;7.50;99.90
23403;DHT22;11874;48.228;11.684;2023-12-14T06:29:21;7.50;99.90
23403;DHT22;11874;48.228;11.684;2023-12-14T06:31:49;7.50;99.90
23403;DHT22;11874;48.228;11.684;2023-12-14T06:34:18;7.50;99.90
23403;DHT22;11874;48.228;11.684;2023-12-14T06:36:47;7.50;99.90
23403;DHT22;11874;48.228;11.684;2023-12-14T06:39:15;7.50;99.90
23403;DHT22;11874;48.228;11.684;2023-12-14T06:41:47;7.50;99.90
23403;DHT22;11874;48.228;11.684;2023-12-14T06:44:15;7.50;99.90
23403;DHT22;11874;48.228;11.684;2023-12-14T06:46:44;7.40;99.90
23403;DHT22;11874;48.228;11.684;2023-12-14T06:49:12;7.40;99.90
23403;DHT22;11874;48.228;11.684;2023-12-14T06:51:40;7.40;99.90
23403;DHT22;11874;48.228;11.684;2023-12-14T06:54:08;7.40;99.90
23403;DHT22;11874;48.228;11.684;2023-12-14T06:56:36;7.50;99.90
23403;DHT22;11874;48.228;11.684;2023-12-14T06:59:06;7.50;99.90
23403;DHT22;11874;48.228;11.684;2023-12-14T07:01:34;7.50;99.90
23403;DHT22;11874;48.228;11.684;2023-12-14T07:04:03;7.50;99.90
23403;DHT22;11874;48.228;11.684;2023-12-14T07:06:32;7.50;99.90
23403;DHT22;11874;48.228;11.684;2023-12-14T07:09:02;7.50;99.90
23403;DHT22;11874;48.228;11.684;2023-12-14T07:11:30;7.40;99.90
23403;DHT22;11874;48.228;11.684;2023-12-14T07:13:58;7.40;99.90
23403;DHT22;11874;48.228;11.684;2023-12-14T07:16:28;7.40;99.90
23403;DHT22;11874;48.228;11.684;2023-12-14T07:18:56;7.40;99.90
23403;DHT22;11874;48.228;11.684;2023-12-14T07:21:24;7.40;99.90
23403;DHT22;11874;48.228;11.684;2023-12-14T07:23:53;7.50;99.90
23403;DHT22;11874;48.228;11.684;2023-12-14T07:26:21;7.40;99.90
23403;DHT22;11874;48.228;11.684;2023-12-14T07:28:52;7.40;99.90
23403;DHT22;11874;48.228;11.684;2023-12-14T07:31:21;7.40;99.90
23403;DHT22;11874;48.228;11.684;2023-12-14T07:33:50;7.40;99.90
23403;DHT22;11874;48.228;11.684;2023-12-14T07:36:19;7.40;99.90
23403;DHT22;11874;48.228;11.684;2023-12-14T07:38:49;7.40;99.90
23403;DHT22;11874;48.228;11.684;2023-12-14T07:41:21;7.40;99.90
23403;DHT22;11874;48.228;11.684;2023-12-14T07:43:53;7.40;99.90
23403;DHT22;11874;48.228;11.684;2023-12-14T07:46:21;7.50;99.90
23403;DHT22;11874;48.228;11.684;2023-12-14T07:48:52;7.50;99.90
23403;DHT22;11874;48.228;11.684;2023-12-14T07:51:20;7.50;99.90
23403;DHT22;11874;48.228;11.684;2023-12-14T07:53:48;7.50;99.90
23403;DHT22;11874;48.228;11.684;2023-12-14T07:56:16;7.50;99.90
23403;DHT22;11874;48.228;11.684;2023-12-14T07:58:45;7.50;99.90
23403;DHT22;11874;48.228;11.684;2023-12-14T08:01:13;7.40;99.90
23403;DHT22;11874;48.228;11.684;2023-12-14T08:03:41;7.50;99.90
23403;DHT22;11874;48.228;11.684;2023-12-14T08:06:12;7.50;99.90
23403;DHT22;11874;48.228;11.684;2023-12-14T08:08:42;7.50;99.90
23403;DHT22;11874;48.228;11.684;2023-12-14T08:11:10;7.50;99.90
23403;DHT22;11874;48.228;11.684;2023-12-14T08:13:39;7.60;99.90
23403;DHT22;11874;48.228;11.684;2023-12-14T08:16:08;7.60;99.90
23403;DHT22;11874;48.228;11.684;2023-12-14T08:18:38;7.60;99.90
23403;DHT22;11874;48.228;11.684;2023-12-14T08:21:07;7.60;99.90
23403;DHT22;11874;48.228;11.684;2023-12-14T08:23:40;7.70;99.90
23403;DHT22;11874;48.228;11.684;2023-12-14T08:26:08;7.60;99.90
23403;DHT22;11874;48.228;11.684;2023-12-14T08:28:37;7.70;99.90
23403;DHT22;11874;48.228;11.684;2023-12-14T08:31:07;7.70;99.90
23403;DHT22;11874;48.228;11.684;2023-12-14T08:33:37;7.70;99.90
23403;DHT22;11874;48.228;11.684;2023-12-14T08:36:08;7.70;99.90
23403;DHT22;11874;48.228;11.684;2023-12-14T08:38:36;7.70;99.90
23403;DHT22;11874;48.228;11.684;2023-12-14T08:41:06;7.60;99.90
23403;DHT22;11874;48.228;11.684;2023-12-14T08:43:34;7.70;99.90
23403;DHT22;11874;48.228;11.684;2023-12-14T08:46:02;7.70;99.90
23403;DHT22;11874;48.228;11.684;2023-12-14T08:48:31;7.70;99.90
23403;DHT22;11874;48.228;11.684;2023-12-14T08:50:59;7.60;99.90
23403;DHT22;11874;48.228;11.684;2023-12-14T08:53:27;7.70;99.90
23403;DHT22;11874;48.228;11.684;2023-12-14T08:55:56;7.70;99.90
23403;DHT22;11874;48.228;11.684;2023-12-14T08:58:26;7.70;99.90
23403;DHT22;11874;48.228;11.684;2023-12-14T09:00:54;7.70;99.90
23403;DHT22;11874;48.228;11.684;2023-12-14T09:03:23;7.70;99.90
23403;DHT22;11874;48.228;11.684;2023-12-14T09:05:53;7.70;99.90
23403;DHT22;11874;48.228;11.684;2023-12-14T09:08:21;7.70;99.90
23403;DHT22;11874;48.228;11.684;2023-12-14T09:10:49;7.70;99.90
23403;DHT22;11874;48.228;11.684;2023-12-14T09:13:18;7.70;99.90
23403;DHT22;11874;48.228;11.684;2023-12-14T09:15:50;7.70;99.90
23403;DHT22;11874;48.228;11.684;2023-12-14T09:18:20;7.70;99.90
23403;DHT22;11874;48.228;11.684;2023-12-14T09:20:49;7.70;99.90
23403;DHT22;11874;48.228;11.684;2023-12-14T09:23:18;7.80;99.90
23403;DHT22;11874;48.228;11.684;2023-12-14T09:25:46;7.80;99.90
23403;DHT22;11874;48.228;11.684;2023-12-14T09:28:15;7.80;99.90
23403;DHT22;11874;48.228;11.684;2023-12-14T09:30:45;7.80;99.90
23403;DHT22;11874;48.228;11.684;2023-12-14T09:33:15;7.80;99.90
23403;DHT22;11874;48.228;11.684;2023-12-14T09:35:43;7.80;99.90
23403;DHT22;11874;48.228;11.684;2023-12-14T09:38:12;7.80;99.90
23403;DHT22;11874;48.228;11.684;2023-12-14T09:40:43;7.80;99.90
23403;DHT22;11874;48.228;11.684;2023-12-14T09:43:11;7.80;99.90
23403;DHT22;11874;48.228;11.684;2023-12-14T09:45:41;7.80;99.90
23403;DHT22;11874;48.228;11.684;2023-12-14T09:48:12;7.80;99.90
23403;DHT22;11874;48.228;11.684;2023-12-14T09:50:43;7.80;99.90
23403;DHT22;11874;48.228;11.684;2023-12-14T09:53:12;7.80;99.90
23403;DHT22;11874;48.228;11.684;2023-12-14T09:55:40;7.80;99.90
23403;DHT22;11874;48.228;11.684;2023-12-14T09:58:08;7.80;99.90
23403;DHT22;11874;48.228;11.684;2023-12-14T10:00:38;7.80;99.90
23403;DHT22;11874;48.228;11.684;2023-12-14T10:03:21;7.80;99.90
23403;DHT22;11874;48.228;11.684;2023-12-14T10:05:51;7.80;99.90
23403;DHT22;11874;48.228;11.684;2023-12-14T10:08:20;7.80;99.90
23403;DHT22;11874;48.228;11.684;2023-12-14T10:10:50;7.80;99.90
23403;DHT22;11874;48.228;11.684;2023-12-14T10:13:21;7.80;99.90
23403;DHT22;11874;48.228;11.684;2023-12-14T10:15:50;7.80;99.90
23403;DHT22;11874;48.228;11.684;2023-12-14T10:18:22;7.90;99.90
23403;DHT22;11874;48.228;11.684;2023-12-14T10:20:53;7.80;99.90
23403;DHT22;11874;48.228;11.684;2023-12-14T10:23:21;7.80;99.90
23403;DHT22;11874;48.228;11.684;2023-12-14T10:25:49;7.80;99.90
23403;DHT22;11874;48.228;11.684;2023-12-14T10:28:17;7.80;99.90
23403;DHT22;11874;48.228;11.684;2023-12-14T10:30:45;7.70;99.90
23403;DHT22;11874;48.228;11.684;2023-12-14T10:33:14;7.70;99.90
23403;DHT22;11874;48.228;11.684;2023-12-14T10:35:45;7.70;99.90
23403;DHT22;11874;48.228;11.684;2023-12-14T10:38:17;7.80;99.90
23403;DHT22;11874;48.228;11.684;2023-12-14T10:40:46;7.70;99.90
23403;DHT22;11874;48.228;11.684;2023-12-14T10:43:16;7.70;99.90
23403;DHT22;11874;48.228;11.684;2023-12-14T10:46:05;7.80;99.90
23403;DHT22;11874;48.228;11.684;2023-12-14T10:48:35;7.80;99.90
23403;DHT22;11874;48.228;11.684;2023-12-14T10:51:04;7.80;99.90
23403;DHT22;11874;48.228;11.684;2023-12-14T10:53:35;7.90;99.90
23403;DHT22;11874;48.228;11.684;2023-12-14T10:56:05;7.90;99.90
23403;DHT22;11874;48.228;11.684;2023-12-14T10:58:47;7.90;99.90
23403;DHT22;11874;48.228;11.684;2023-12-14T11:01:15;7.90;99.90
23403;DHT22;11874;48.228;11.684;2023-12-14T11:03:45;8.00;99.90
23403;DHT22;11874;48.228;11.684;2023-12-14T11:06:21;8.00;99.90
23403;DHT22;11874;48.228;11.684;2023-12-14T11:08:59;8.10;99.90
23403;DHT22;11874;48.228;11.684;2023-12-14T11:11:28;8.10;99.90
23403;DHT22;11874;48.228;11.684;2023-12-14T11:13:58;8.10;99.90
23403;DHT22;11874;48.228;11.684;2023-12-14T11:16:27;8.10;99.90
23403;DHT22;11874;48.228;11.684;2023-12-14T11:19:24;8.10;99.90
23403;DHT22;11874;48.228;11.684;2023-12-14T11:22:12;8.10;99.90
23403;DHT22;11874;48.228;11.684;2023-12-14T11:24:53;8.10;99.90
23403;DHT22;11874;48.228;11.684;2023-12-14T11:27:26;8.20;99.90
23403;DHT22;11874;48.228;11.684;2023-12-14T11:29:56;8.20;99.90
23403;DHT22;11874;48.228;11.684;2023-12-14T11:32:26;8.20;99.90
23403;DHT22;11874;48.228;11.684;2023-12-14T11:34:55;8.30;99.90
23403;DHT22;11874;48.228;11.684;2023-12-14T11:37:24;8.30;99.90
23403;DHT22;11874;48.228;11.684;2023-12-14T11:39:54;8.30;99.90
23403;DHT22;11874;48.228;11.684;2023-12-14T11:42:22;8.30;99.90
23403;DHT22;11874;48.228;11.684;2023-12-14T11:44:52;8.40;99.90
23403;DHT22;11874;48.228;11.684;2023-12-14T11:47:20;8.30;99.90
23403;DHT22;11874;48.228;11.684;2023-12-14T11:49:49;8.30;99.90
23403;DHT22;11874;48.228;11.684;2023-12-14T11:52:17;8.30;99.90
23403;DHT22;11874;48.228;11.684;2023-12-14T11:54:47;8.20;99.90
23403;DHT22;11874;48.228;11.684;2023-12-14T11:57:17;8.20;99.90
23403;DHT22;11874;48.228;11.684;2023-12-14T11:59:46;8.20;99.90
23403;DHT22;11874;48.228;11.684;2023-12-14T12:02:23;8.20;99.90
23403;DHT22;11874;48.228;11.684;2023-12-14T12:04:51;8.20;99.90
23403;DHT22;11874;48.228;11.684;2023-12-14T12:07:21;8.20;99.90
23403;DHT22;11874;48.228;11.684;2023-12-14T12:09:49;8.20;99.90
23403;DHT22;11874;48.228;11.684;2023-12-14T12:12:18;8.20;99.90
23403;DHT22;11874;48.228;11.684;2023-12-14T12:14:46;8.20;99.90
23403;DHT22;11874;48.228;11.684;2023-12-14T12:17:16;8.20;99.90
23403;DHT22;11874;48.228;11.684;2023-12-14T12:19:46;8.20;99.90
23403;DHT22;11874;48.228;11.684;2023-12-14T12:22:14;8.30;99.90
23403;DHT22;11874;48.228;11.684;2023-12-14T12:24:42;8.30;99.90
23403;DHT22;11874;48.228;11.684;2023-12-14T12:27:10;8.30;99.90
23403;DHT22;11874;48.228;11.684;2023-12-14T12:29:40;8.30;99.90
23403;DHT22;11874;48.228;11.684;2023-12-14T12:32:08;8.30;99.90
23403;DHT22;11874;48.228;11.684;2023-12-14T12:34:36;8.30;99.90
23403;DHT22;11874;48.228;11.684;2023-12-14T12:37:04;8.30;99.90
23403;DHT22;11874;48.228;11.684;2023-12-14T12:39:32;8.30;99.90
23403;DHT22;11874;48.228;11.684;2023-12-14T12:42:01;8.30;99.90
23403;DHT22;11874;48.228;11.684;2023-12-14T12:44:29;8.30;99.90
23403;DHT22;11874;48.228;11.684;2023-12-14T12:46:58;8.40;99.90
23403;DHT22;11874;48.228;11.684;2023-12-14T12:49:36;8.30;99.90
23403;DHT22;11874;48.228;11.684;2023-12-14T12:52:05;8.40;99.90
23403;DHT22;11874;48.228;11.684;2023-12-14T12:54:34;8.30;99.90
23403;DHT22;11874;48.228;11.684;2023-12-14T12:57:02;8.30;99.90
23403;DHT22;11874;48.228;11.684;2023-12-14T12:59:31;8.40;99.90
23403;DHT22;11874;48.228;11.684;2023-12-14T13:02:01;8.40;99.90
23403;DHT22;11874;48.228;11.684;2023-12-14T13:04:30;8.40;99.90
23403;DHT22;11874;48.228;11.684;2023-12-14T13:06:58;8.30;99.90
23403;DHT22;11874;48.228;11.684;2023-12-14T13:09:29;8.30;99.90
23403;DHT22;11874;48.228;11.684;2023-12-14T13:11:56;8.30;99.90
23403;DHT22;11874;48.228;11.684;2023-12-14T13:14:25;8.30;99.90
23403;DHT22;11874;48.228;11.684;2023-12-14T13:16:53;8.30;99.90
23403;DHT22;11874;48.228;11.684;2023-12-14T13:19:23;8.30;99.90
23403;DHT22;11874;48.228;11.684;2023-12-14T13:21:51;8.30;99.90
23403;DHT22;11874;48.228;11.684;2023-12-14T13:24:19;8.30;99.90
23403;DHT22;11874;48.228;11.684;2023-12-14T13:26:47;8.20;99.90
23403;DHT22;11874;48.228;11.684;2023-12-14T13:29:15;8.20;99.90
23403;DHT22;11874;48.228;11.684;2023-12-14T13:31:43;8.20;99.90
23403;DHT22;11874;48.228;11.684;2023-12-14T13:34:11;8.20;99.90
23403;DHT22;11874;48.228;11.684;2023-12-14T13:36:41;8.20;99.90
23403;DHT22;11874;48.228;11.684;2023-12-14T13:39:09;8.30;99.90
23403;DHT22;11874;48.228;11.684;2023-12-14T13:41:38;8.30;99.90
23403;DHT22;11874;48.228;11.684;2023-12-14T13:44:16;8.30;99.90
23403;DHT22;11874;48.228;11.684;2023-12-14T13:46:45;8.30;99.90
23403;DHT22;11874;48.228;11.684;2023-12-14T13:49:13;8.30;99.90
23403;DHT22;11874;48.228;11.684;2023-12-14T13:51:42;8.20;99.90
23403;DHT22;11874;48.228;11.684;2023-12-14T13:54:10;8.10;99.90
23403;DHT22;11874;48.228;11.684;2023-12-14T13:56:39;8.20;99.90
23403;DHT22;11874;48.228;11.684;2023-12-14T13:59:08;8.20;99.90
23403;DHT22;11874;48.228;11.684;2023-12-14T14:01:36;8.20;99.90
23403;DHT22;11874;48.228;11.684;2023-12-14T14:04:05;8.20;99.90
23403;DHT22;11874;48.228;11.684;2023-12-14T14:06:33;8.20;99.90
23403;DHT22;11874;48.228;11.684;2023-12-14T14:09:02;8.20;99.90
23403;DHT22;11874;48.228;11.684;2023-12-14T14:11:31;8.20;99.90
23403;DHT22;11874;48.228;11.684;2023-12-14T14:13:59;8.20;99.90
23403;DHT22;11874;48.228;11.684;2023-12-14T14:16:27;8.10;99.90
23403;DHT22;11874;48.228;11.684;2023-12-14T14:18:54;8.20;99.90
23403;DHT22;11874;48.228;11.684;2023-12-14T14:21:22;8.20;99.90
23403;DHT22;11874;48.228;11.684;2023-12-14T14:23:53;8.10;99.90
23403;DHT22;11874;48.228;11.684;2023-12-14T14:26:22;8.20;99.90
23403;DHT22;11874;48.228;11.684;2023-12-14T14:28:51;8.20;99.90
23403;DHT22;11874;48.228;11.684;2023-12-14T14:31:21;8.20;99.90
23403;DHT22;11874;48.228;11.684;2023-12-14T14:33:50;8.30;99.90
23403;DHT22;11874;48.228;11.684;2023-12-14T14:36:18;8.30;99.90
23403;DHT22;11874;48.228;11.684;2023-12-14T14:38:46;8.30;99.90
23403;DHT22;11874;48.228;11.684;2023-12-14T14:41:14;8.30;99.90
23403;DHT22;11874;48.228;11.684;2023-12-14T14:43:44;8.30;99.90
23403;DHT22;11874;48.228;11.684;2023-12-14T14:46:12;8.30;99.90
23403;DHT22;11874;48.228;11.684;2023-12-14T14:48:42;8.20;99.90
23403;DHT22;11874;48.228;11.684;2023-12-14T14:51:11;8.20;99.90
23403;DHT22;11874;48.228;11.684;2023-12-14T14:53:39;8.20;99.90
23403;DHT22;11874;48.228;11.684;2023-12-14T14:56:10;8.20;99.90
23403;DHT22;11874;48.228;11.684;2023-12-14T14:58:39;8.20;99.90
23403;DHT22;11874;48.228;11.684;2023-12-14T15:01:08;8.10;99.90
23403;DHT22;11874;48.228;11.684;2023-12-14T15:03:36;8.10;99.90
23403;DHT22;11874;48.228;11.684;2023-12-14T15:06:05;8.10;99.90
23403;DHT22;11874;48.228;11.684;2023-12-14T15:08:33;8.00;99.90
23403;DHT22;11874;48.228;11.684;2023-12-14T15:11:01;8.00;99.90
23403;DHT22;11874;48.228;11.684;2023-12-14T15:13:30;8.00;99.90
23403;DHT22;11874;48.228;11.684;2023-12-14T15:15:59;8.00;99.90
23403;DHT22;11874;48.228;11.684;2023-12-14T15:18:28;8.00;99.90
23403;DHT22;11874;48.228;11.684;2023-12-14T15:20:56;8.00;99.90
23403;DHT22;11874;48.228;11.684;2023-12-14T15:23:24;8.00;99.90
23403;DHT22;11874;48.228;11.684;2023-12-14T15:25:52;8.00;99.90
23403;DHT22;11874;48.228;11.684;2023-12-14T15:28:20;8.00;99.90
23403;DHT22;11874;48.228;11.684;2023-12-14T15:30:49;8.00;99.90
23403;DHT22;11874;48.228;11.684;2023-12-14T15:33:17;7.90;99.90
23403;DHT22;11874;48.228;11.684;2023-12-14T15:35:46;8.00;99.90
23403;DHT22;11874;48.228;11.684;2023-12-14T15:38:14;8.00;99.90
23403;DHT22;11874;48.228;11.684;2023-12-14T15:40:42;8.00;99.90